Time;durP1;ratioP1;P1;durP2;ratioP2;P2;SDS_P1;SDS_P2;PMS_P1;PMS_P2;Temp;Humidity;BMP_temperature;BMP_pressure;BME280_temperature;BME280_humidity;BME280_pressure;Samples;Min_cycle;Max_cycle;Signal;HPM_P1;HPM_P2
2023/03/11 00:00:46;;;;;;;21.10;7.43;;;-1.40;99.90;;;;;;6234047;23;20052;-96
2023/03/11 00:03:16;;;;;;;15.27;6.88;;;-1.50;99.90;;;;;;6203971;23;20012;-94
2023/03/11 00:05:43;;;;;;;14.05;7.82;;;-1.50;99.90;;;;;;6206270;23;20004;-95
2023/03/11 00:08:25;;;;;;;15.40;7.82;;;-1.50;99.90;;;;;;6205300;23;20001;-94
2023/03/11 00:10:54;;;;;;;20.55;7.57;;;-1.50;99.90;;;;;;6200028;23;20075;-94
2023/03/11 00:13:20;;;;;;;21.40;8.77;;;-1.50;99.90;;;;;;6197636;23;20004;-93
2023/03/11 00:15:48;;;;;;;25.80;9.43;;;-1.50;99.90;;;;;;6218969;23;20038;-92
2023/03/11 00:18:15;;;;;;;21.50;8.95;;;-1.50;99.90;;;;;;6248173;23;20366;-94
2023/03/11 00:20:44;;;;;;;21.08;9.32;;;-1.50;99.90;;;;;;6226764;23;20102;-92
2023/03/11 00:23:12;;;;;;;21.67;8.98;;;-1.50;99.90;;;;;;6223570;23;20103;-92
2023/03/11 00:25:38;;;;;;;22.92;9.90;;;-1.50;99.90;;;;;;6221180;23;20008;-93
2023/03/11 00:28:09;;;;;;;21.73;10.00;;;-1.60;99.90;;;;;;6220544;23;20107;-90
2023/03/11 00:30:35;;;;;;;22.15;10.13;;;-1.70;99.90;;;;;;6220524;23;20004;-92
2023/03/11 00:33:01;;;;;;;26.08;10.38;;;-1.80;99.90;;;;;;6220376;23;20432;-91
2023/03/11 00:35:30;;;;;;;33.00;10.13;;;-1.80;99.90;;;;;;6220898;23;20078;-91
2023/03/11 00:37:58;;;;;;;24.88;10.40;;;-1.80;99.90;;;;;;6219577;23;20035;-94
2023/03/11 00:40:27;;;;;;;21.25;9.55;;;-1.80;99.90;;;;;;6220605;23;20008;-91
2023/03/11 00:42:53;;;;;;;23.60;9.38;;;-1.80;99.90;;;;;;6220561;23;20026;-90
2023/03/11 00:45:19;;;;;;;21.75;10.05;;;-1.80;99.90;;;;;;6220049;23;20019;-90
2023/03/11 00:47:44;;;;;;;20.38;8.30;;;-1.70;99.90;;;;;;6220114;23;20004;-90
2023/03/11 00:50:16;;;;;;;19.67;9.38;;;-1.70;99.90;;;;;;6220315;23;20012;-90
2023/03/11 00:52:43;;;;;;;21.40;8.52;;;-1.70;99.90;;;;;;6220269;23;20014;-89
2023/03/11 00:55:12;;;;;;;23.00;9.07;;;-1.60;99.90;;;;;;6220567;23;20008;-91
2023/03/11 00:57:38;;;;;;;30.33;8.77;;;-1.60;99.90;;;;;;6220222;23;20017;-90
2023/03/11 01:00:08;;;;;;;17.88;8.05;;;-1.60;99.90;;;;;;6220147;23;20008;-91
2023/03/11 01:02:34;;;;;;;23.63;9.18;;;-1.60;99.90;;;;;;6220143;23;20436;-90
2023/03/11 01:05:00;;;;;;;28.17;10.60;;;-1.60;99.90;;;;;;6220683;23;20007;-89
2023/03/11 01:07:26;;;;;;;26.00;10.90;;;-1.80;99.90;;;;;;6220999;23;20008;-90
2023/03/11 01:09:51;;;;;;;23.15;9.27;;;-1.90;99.90;;;;;;6221878;23;20005;-90
2023/03/11 01:12:17;;;;;;;26.05;8.40;;;-2.00;99.90;;;;;;6221528;23;20019;-90
2023/03/11 01:14:43;;;;;;;23.42;7.50;;;-2.00;99.90;;;;;;6230134;23;20011;-90
2023/03/11 01:17:08;;;;;;;20.25;8.45;;;-2.00;99.90;;;;;;6234749;23;20043;-92
2023/03/11 01:19:34;;;;;;;19.33;8.27;;;-2.00;99.90;;;;;;6233102;23;20000;-90
2023/03/11 01:22:00;;;;;;;23.70;8.60;;;-2.00;99.90;;;;;;6228737;23;20024;-93
2023/03/11 01:24:26;;;;;;;19.13;8.00;;;-2.10;99.90;;;;;;6255605;23;20007;-89
2023/03/11 01:26:51;;;;;;;25.90;8.35;;;-2.10;99.90;;;;;;6224092;23;20386;-90
2023/03/11 01:29:18;;;;;;;18.38;7.82;;;-2.10;99.90;;;;;;6223292;23;20012;-92
2023/03/11 01:31:44;;;;;;;20.73;7.40;;;-2.10;99.90;;;;;;6222571;23;20004;-92
2023/03/11 01:34:11;;;;;;;23.45;8.80;;;-2.20;99.90;;;;;;6222975;23;20097;-91
2023/03/11 01:36:37;;;;;;;24.23;7.65;;;-2.20;99.90;;;;;;6222803;23;20347;-92
2023/03/11 01:39:03;;;;;;;17.58;8.23;;;-2.20;99.90;;;;;;6227240;23;20011;-91
2023/03/11 01:41:28;;;;;;;19.20;7.82;;;-2.30;99.90;;;;;;6223049;23;20012;-93
2023/03/11 01:43:55;;;;;;;21.13;8.02;;;-2.30;99.90;;;;;;6222521;23;20004;-91
2023/03/11 01:46:31;;;;;;;22.02;8.07;;;-2.30;99.90;;;;;;6222281;23;20428;-92
2023/03/11 01:49:01;;;;;;;19.40;7.68;;;-2.30;99.90;;;;;;6222367;23;20004;-91
2023/03/11 01:51:34;;;;;;;15.80;5.35;;;-2.30;99.90;;;;;;6222117;23;20004;-90
2023/03/11 01:54:04;;;;;;;14.43;5.93;;;-2.30;99.90;;;;;;6221864;23;20506;-92
2023/03/11 01:56:30;;;;;;;17.77;7.35;;;-2.40;99.90;;;;;;6221804;23;20436;-92
2023/03/11 01:58:57;;;;;;;20.05;7.50;;;-2.40;99.90;;;;;;6221436;23;20004;-91
2023/03/11 02:01:23;;;;;;;17.70;7.43;;;-2.50;99.90;;;;;;6221758;23;20027;-92
2023/03/11 02:03:50;;;;;;;20.10;7.07;;;-2.50;99.90;;;;;;6221378;23;20004;-91
2023/03/11 02:06:20;;;;;;;16.10;6.47;;;-2.50;99.90;;;;;;6221396;23;20004;-91
2023/03/11 02:08:46;;;;;;;20.23;7.03;;;-2.60;99.90;;;;;;6247841;23;20061;-91
2023/03/11 02:11:18;;;;;;;21.83;7.22;;;-2.60;99.90;;;;;;6247296;23;20418;-91
2023/03/11 02:13:45;;;;;;;16.35;6.45;;;-2.60;99.90;;;;;;6221375;23;20010;-90
2023/03/11 02:16:12;;;;;;;22.90;6.93;;;-2.60;99.90;;;;;;6221336;23;20024;-89
2023/03/11 02:18:39;;;;;;;18.42;6.70;;;-2.60;99.90;;;;;;6221944;23;20007;-91
2023/03/11 02:21:26;;;;;;;19.05;6.53;;;-2.60;99.90;;;;;;6222491;23;20015;-90
2023/03/11 02:24:07;;;;;;;17.52;6.93;;;-2.60;99.90;;;;;;6223801;23;20020;-88
2023/03/11 02:26:48;;;;;;;19.60;7.15;;;-2.60;99.90;;;;;;6224592;23;20008;-87
2023/03/11 02:29:14;;;;;;;15.25;6.07;;;-2.60;99.90;;;;;;6224913;23;20008;-90
2023/03/11 02:31:41;;;;;;;14.93;6.43;;;-2.60;99.90;;;;;;6241236;23;20004;-89
2023/03/11 02:34:13;;;;;;;19.75;6.80;;;-2.60;99.90;;;;;;6235399;22;19996;-89
2023/03/11 02:36:40;;;;;;;18.95;7.90;;;-2.60;99.90;;;;;;6247410;23;20008;-91
2023/03/11 02:39:07;;;;;;;15.10;6.50;;;-2.70;99.90;;;;;;6247463;23;20011;-89
2023/03/11 02:41:37;;;;;;;17.17;7.20;;;-2.80;99.90;;;;;;6229521;23;20458;-90
2023/03/11 02:44:07;;;;;;;24.77;8.70;;;-2.80;99.90;;;;;;6248221;23;20004;-90
2023/03/11 02:46:34;;;;;;;20.33;8.38;;;-3.00;99.90;;;;;;6221227;23;20239;-89
2023/03/11 02:49:00;;;;;;;21.63;7.38;;;-3.00;99.90;;;;;;6221177;23;20039;-91
2023/03/11 02:51:26;;;;;;;22.85;8.05;;;-3.10;99.90;;;;;;6221378;23;20127;-89
2023/03/11 02:53:56;;;;;;;23.95;9.43;;;-3.10;99.90;;;;;;6221193;23;20004;-89
2023/03/11 02:56:22;;;;;;;;;;;-3.10;99.90;;;;;;6196368;23;20023;-89
2023/03/11 02:58:48;;;;;;;17.38;6.07;;;-3.10;99.90;;;;;;6221099;23;19919;-91
2023/03/11 03:01:13;;;;;;;16.83;5.93;;;-3.10;99.90;;;;;;6221155;23;20435;-89
2023/03/11 03:03:39;;;;;;;21.75;6.68;;;-3.00;99.90;;;;;;6221319;23;20019;-88
2023/03/11 03:06:05;;;;;;;16.73;6.47;;;-2.90;99.90;;;;;;6220745;23;20451;-91
2023/03/11 03:08:31;;;;;;;14.68;6.35;;;-3.00;99.90;;;;;;6220582;23;20004;-89
2023/03/11 03:10:58;;;;;;;17.35;6.40;;;-3.00;99.90;;;;;;6220742;23;20008;-90
2023/03/11 03:13:25;;;;;;;15.60;5.88;;;-3.00;99.90;;;;;;6220648;23;20005;-89
2023/03/11 03:15:50;;;;;;;12.43;5.47;;;-3.00;99.90;;;;;;6220519;23;20019;-89
2023/03/11 03:18:16;;;;;;;16.85;6.22;;;-3.00;99.90;;;;;;6220912;23;20004;-90
2023/03/11 03:20:42;;;;;;;15.30;6.70;;;-3.10;99.90;;;;;;6220757;23;20313;-89
2023/03/11 03:23:08;;;;;;;20.02;7.32;;;-3.20;99.90;;;;;;6220744;23;20000;-89
2023/03/11 03:25:33;;;;;;;16.75;5.95;;;-3.30;99.90;;;;;;6220756;23;20100;-90
2023/03/11 03:27:59;;;;;;;15.40;6.32;;;-3.30;99.90;;;;;;6220592;23;20574;-90
2023/03/11 03:30:27;;;;;;;17.02;5.82;;;-3.40;99.90;;;;;;6220735;23;20008;-90
2023/03/11 03:32:53;;;;;;;13.63;4.82;;;-3.50;99.90;;;;;;6221009;23;20035;-89
2023/03/11 03:35:18;;;;;;;15.38;5.82;;;-3.40;99.90;;;;;;6221485;23;20016;-90
2023/03/11 03:37:44;;;;;;;17.63;5.60;;;-3.40;99.90;;;;;;6220365;23;20016;-90
2023/03/11 03:40:10;;;;;;;25.80;6.30;;;-3.40;99.90;;;;;;6222015;23;20431;-90
2023/03/11 03:42:37;;;;;;;12.90;5.80;;;-3.50;99.90;;;;;;6220089;23;20008;-89
2023/03/11 03:45:05;;;;;;;14.68;5.65;;;-3.50;99.90;;;;;;6220249;23;20087;-89
2023/03/11 03:47:32;;;;;;;17.48;5.85;;;-3.50;99.90;;;;;;6219850;23;20012;-89
2023/03/11 03:49:58;;;;;;;19.75;6.15;;;-3.50;99.90;;;;;;6220373;23;20000;-89
2023/03/11 03:52:24;;;;;;;12.98;6.45;;;-3.50;99.90;;;;;;6220360;23;20007;-89
2023/03/11 03:54:50;;;;;;;17.20;5.60;;;-3.60;99.90;;;;;;6220665;23;20008;-89
2023/03/11 03:57:16;;;;;;;15.85;5.43;;;-3.70;99.90;;;;;;6220325;23;20018;-88
2023/03/11 03:59:42;;;;;;;15.65;5.65;;;-3.70;99.90;;;;;;6220172;23;20036;-88
2023/03/11 04:02:07;;;;;;;12.43;6.15;;;-3.70;99.90;;;;;;6220136;23;20000;-89
2023/03/11 04:04:33;;;;;;;20.15;6.63;;;-3.70;99.90;;;;;;6220085;23;20004;-89
2023/03/11 04:06:59;;;;;;;16.02;5.53;;;-3.70;99.90;;;;;;6220087;23;20004;-89
2023/03/11 04:09:25;;;;;;;14.35;5.95;;;-3.80;99.90;;;;;;6220059;23;20443;-89
2023/03/11 04:11:50;;;;;;;9.70;6.05;;;-3.90;99.90;;;;;;6218724;23;20086;-90
2023/03/11 04:14:16;;;;;;;14.48;5.72;;;-3.90;99.90;;;;;;6219318;23;20062;-89
2023/03/11 04:16:42;;;;;;;15.95;5.70;;;-4.00;99.90;;;;;;6219878;23;20090;-90
2023/03/11 04:19:08;;;;;;;16.02;5.55;;;-4.00;99.90;;;;;;6220177;23;20035;-89
2023/03/11 04:21:33;;;;;;;14.13;5.80;;;-4.00;99.90;;;;;;6220207;23;20004;-89
2023/03/11 04:23:59;;;;;;;14.57;5.57;;;-4.00;99.90;;;;;;6220154;23;20335;-88
2023/03/11 04:26:27;;;;;;;16.73;5.22;;;-4.10;99.90;;;;;;6220315;23;20004;-89
2023/03/11 04:28:53;;;;;;;19.95;5.40;;;-4.10;99.90;;;;;;6219919;23;20034;-89
2023/03/11 04:31:18;;;;;;;12.25;5.50;;;-4.20;99.90;;;;;;6219925;23;20001;-88
2023/03/11 04:33:44;;;;;;;16.95;6.05;;;-4.30;99.90;;;;;;6219849;23;20061;-89
2023/03/11 04:36:11;;;;;;;15.75;5.43;;;-4.30;99.90;;;;;;6219503;23;20012;-88
2023/03/11 04:38:37;;;;;;;21.63;5.20;;;-4.20;99.90;;;;;;6220131;23;20428;-89
2023/03/11 04:41:06;;;;;;;15.35;5.53;;;-4.30;99.90;;;;;;6220341;23;20060;-89
2023/03/11 04:43:32;;;;;;;18.33;6.05;;;-4.20;99.90;;;;;;6220227;23;20011;-88
2023/03/11 04:45:58;;;;;;;12.20;5.32;;;-4.20;99.90;;;;;;6219811;23;20015;-89
2023/03/11 04:48:25;;;;;;;16.58;5.78;;;-4.20;99.90;;;;;;6220318;23;20366;-89
2023/03/11 04:50:51;;;;;;;14.43;5.63;;;-4.20;99.90;;;;;;6220137;23;20008;-88
2023/03/11 04:53:17;;;;;;;18.00;5.78;;;-4.10;99.90;;;;;;6220118;23;20027;-88
2023/03/11 04:55:43;;;;;;;16.20;6.40;;;-4.10;99.90;;;;;;6224381;23;20012;-86
2023/03/11 04:58:08;;;;;;;14.32;6.35;;;-4.10;99.90;;;;;;6231502;23;20001;-88
2023/03/11 05:00:34;;;;;;;14.57;5.60;;;-4.00;99.90;;;;;;6230679;23;20451;-88
2023/03/11 05:03:00;;;;;;;14.88;6.10;;;-4.00;99.90;;;;;;6225969;23;20004;-88
2023/03/11 05:05:25;;;;;;;14.25;6.20;;;-4.00;99.90;;;;;;6226280;23;20534;-87
2023/03/11 05:07:51;;;;;;;15.77;5.63;;;-4.10;99.90;;;;;;6222315;23;20004;-88
2023/03/11 05:10:21;;;;;;;13.65;5.32;;;-4.10;99.90;;;;;;6220360;23;20035;-88
2023/03/11 05:12:51;;;;;;;18.23;5.50;;;-4.20;99.90;;;;;;6220564;23;20001;-89
2023/03/11 05:15:17;;;;;;;13.43;3.83;;;-4.30;99.90;;;;;;6219946;23;20295;-88
2023/03/11 05:17:43;;;;;;;13.35;4.30;;;-4.30;99.90;;;;;;6219797;23;20004;-89
2023/03/11 05:20:09;;;;;;;13.00;4.70;;;-4.40;99.90;;;;;;6247370;23;20011;-88
2023/03/11 05:22:35;;;;;;;12.52;4.53;;;-4.40;99.90;;;;;;6220729;23;20435;-88
2023/03/11 05:25:01;;;;;;;13.98;4.43;;;-4.40;99.90;;;;;;6220709;23;20511;-88
2023/03/11 05:27:27;;;;;;;12.85;5.07;;;-4.50;99.90;;;;;;6220549;23;20010;-87
2023/03/11 05:29:53;;;;;;;16.20;4.80;;;-4.40;99.90;;;;;;6224950;23;20011;-88
2023/03/11 05:32:18;;;;;;;13.52;5.18;;;-4.40;99.90;;;;;;6221271;23;20015;-87
2023/03/11 05:34:45;;;;;;;13.43;5.35;;;-4.40;99.90;;;;;;6221842;23;20004;-87
2023/03/11 05:37:11;;;;;;;17.42;5.10;;;-4.40;99.90;;;;;;6220650;23;20027;-87
2023/03/11 05:39:37;;;;;;;14.50;5.32;;;-4.30;99.90;;;;;;6221714;23;20027;-87
2023/03/11 05:42:06;;;;;;;16.05;5.35;;;-4.30;99.90;;;;;;6220812;23;20000;-87
2023/03/11 05:44:33;;;;;;;15.20;5.80;;;-4.10;99.90;;;;;;6219471;23;20004;-87
2023/03/11 05:46:59;;;;;;;22.05;6.68;;;-4.10;99.90;;;;;;6218707;23;20273;-87
2023/03/11 05:49:25;;;;;;;15.98;5.70;;;-4.10;99.90;;;;;;6218373;23;20004;-87
2023/03/11 05:51:53;;;;;;;21.05;5.88;;;-4.10;99.90;;;;;;6217936;23;20065;-87
2023/03/11 05:54:18;;;;;;;14.90;5.80;;;-4.10;99.90;;;;;;6218326;23;20091;-87
2023/03/11 05:56:45;;;;;;;13.32;5.07;;;-4.10;99.90;;;;;;6218473;23;20055;-86
2023/03/11 05:59:14;;;;;;;11.60;5.38;;;-4.10;99.90;;;;;;6218833;23;20050;-87
2023/03/11 06:01:41;;;;;;;20.60;5.70;;;-4.20;99.90;;;;;;6217808;23;20016;-88
2023/03/11 06:04:08;;;;;;;14.15;5.03;;;-4.20;99.90;;;;;;6218391;23;20142;-87
2023/03/11 06:06:33;;;;;;;22.63;6.18;;;-4.20;99.90;;;;;;6218675;23;20038;-87
2023/03/11 06:09:00;;;;;;;18.50;5.82;;;-4.20;99.90;;;;;;6219187;23;20004;-87
2023/03/11 06:11:26;;;;;;;15.77;6.22;;;-4.30;99.90;;;;;;6219534;23;20008;-87
2023/03/11 06:13:53;;;;;;;14.43;5.60;;;-4.30;99.90;;;;;;6220465;23;20459;-87
2023/03/11 06:16:20;;;;;;;14.20;5.70;;;-4.30;99.90;;;;;;6220783;23;20016;-88
2023/03/11 06:18:45;;;;;;;17.05;5.53;;;-4.40;99.90;;;;;;6220828;23;20317;-87
2023/03/11 06:21:17;;;;;;;16.55;5.43;;;-4.30;99.90;;;;;;6248054;23;20008;-87
2023/03/11 06:23:42;;;;;;;17.08;5.65;;;-4.40;99.90;;;;;;6221424;23;20004;-87
2023/03/11 06:26:12;;;;;;;14.82;5.22;;;-4.40;99.90;;;;;;6222148;23;20008;-87
2023/03/11 06:28:38;;;;;;;21.75;6.25;;;-4.40;99.90;;;;;;6222385;23;20363;-89
2023/03/11 06:31:15;;;;;;;22.02;6.70;;;-4.30;99.90;;;;;;6221224;23;20035;-87
2023/03/11 06:33:42;;;;;;;16.60;7.10;;;-4.40;99.90;;;;;;6221330;23;20027;-88
2023/03/11 06:36:09;;;;;;;15.45;5.60;;;-4.30;99.90;;;;;;6221419;23;20039;-87
2023/03/11 06:38:35;;;;;;;14.68;5.57;;;-4.30;99.90;;;;;;6221237;23;20081;-87
2023/03/11 06:41:02;;;;;;;14.98;5.50;;;-4.30;99.90;;;;;;6221114;23;20035;-86
2023/03/11 06:43:30;;;;;;;17.63;6.40;;;-4.30;99.90;;;;;;6221413;23;20008;-86
2023/03/11 06:45:56;;;;;;;13.00;5.70;;;-4.30;99.90;;;;;;6220748;23;20454;-86
2023/03/11 06:48:22;;;;;;;18.17;6.30;;;-4.30;99.90;;;;;;6220447;23;20008;-87
2023/03/11 06:50:58;;;;;;;19.95;6.75;;;-4.20;99.90;;;;;;6220128;23;20015;-87
2023/03/11 06:53:25;;;;;;;15.73;6.32;;;-4.20;99.90;;;;;;6220164;23;20014;-88
2023/03/11 06:56:18;;;;;;;17.70;6.25;;;-4.20;99.90;;;;;;6220644;23;20036;-88
2023/03/11 06:58:44;;;;;;;14.32;5.95;;;-4.20;99.90;;;;;;6214107;23;20007;-87
2023/03/11 07:01:14;;;;;;;17.63;6.10;;;-4.20;99.90;;;;;;6220133;23;20070;-88
2023/03/11 07:03:40;;;;;;;23.65;6.32;;;-4.10;99.90;;;;;;6220324;23;20004;-89
2023/03/11 07:06:12;;;;;;;16.30;6.38;;;-4.10;99.90;;;;;;6219910;23;20081;-88
2023/03/11 07:08:38;;;;;;;19.73;6.68;;;-4.10;99.90;;;;;;6220206;23;20047;-87
2023/03/11 07:11:11;;;;;;;23.58;7.57;;;-4.10;99.90;;;;;;6220422;23;20431;-87
2023/03/11 07:13:36;;;;;;;20.30;8.07;;;-4.00;99.90;;;;;;6219126;23;20000;-87
2023/03/11 07:16:26;;;;;;;23.50;7.68;;;-4.00;99.90;;;;;;6218465;23;20440;-88
2023/03/11 07:18:54;;;;;;;21.42;7.75;;;-4.00;99.90;;;;;;6219599;23;20000;-88
2023/03/11 07:21:21;;;;;;;18.92;7.15;;;-4.00;99.90;;;;;;6220046;23;20033;-88
2023/03/11 07:23:50;;;;;;;21.23;7.25;;;-4.10;99.90;;;;;;6220778;23;20027;-89
2023/03/11 07:26:16;;;;;;;25.15;6.68;;;-4.10;99.90;;;;;;6221101;23;20023;-89
2023/03/11 07:28:43;;;;;;;23.45;7.18;;;-4.00;99.90;;;;;;6220476;23;20008;-89
2023/03/11 07:31:15;;;;;;;22.40;7.03;;;-4.00;99.90;;;;;;6220340;23;20475;-88
2023/03/11 07:33:40;;;;;;;18.52;7.18;;;-4.00;99.90;;;;;;6218069;23;20020;-88
2023/03/11 07:36:09;;;;;;;22.63;6.55;;;-4.00;99.90;;;;;;6219305;23;20024;-86
2023/03/11 07:38:35;;;;;;;17.60;7.28;;;-4.00;99.90;;;;;;6219485;23;20004;-89
2023/03/11 07:41:01;;;;;;;13.98;6.55;;;-4.00;99.90;;;;;;6246754;23;20004;-88
2023/03/11 07:43:27;;;;;;;15.15;6.80;;;-3.90;99.90;;;;;;6219950;23;20004;-87
2023/03/11 07:46:03;;;;;;;14.68;6.07;;;-3.90;99.90;;;;;;6219984;23;20008;-87
2023/03/11 07:48:29;;;;;;;22.13;7.72;;;-3.90;99.90;;;;;;6219465;23;20332;-88
2023/03/11 07:51:20;;;;;;;24.88;8.65;;;-3.90;99.90;;;;;;6248747;23;20443;-87
2023/03/11 07:53:46;;;;;;;17.27;7.30;;;-3.80;99.90;;;;;;6219533;23;20541;-87
2023/03/11 07:56:13;;;;;;;16.67;6.57;;;-3.80;99.90;;;;;;6218657;23;20095;-87
2023/03/11 07:58:40;;;;;;;14.10;6.60;;;-3.70;99.90;;;;;;6219557;23;20004;-87
2023/03/11 08:01:09;;;;;;;16.20;7.05;;;-3.70;99.90;;;;;;6219138;23;20423;-87
2023/03/11 08:03:35;;;;;;;24.13;7.93;;;-3.60;99.90;;;;;;6218478;23;20446;-89
2023/03/11 08:06:01;;;;;;;16.88;7.63;;;-3.60;99.90;;;;;;6219105;23;20004;-87
2023/03/11 08:08:27;;;;;;;17.95;7.47;;;-3.50;99.90;;;;;;6219441;23;20015;-86
2023/03/11 08:10:53;;;;;;;19.55;6.85;;;-3.50;99.90;;;;;;6219937;23;20008;-86
2023/03/11 08:13:19;;;;;;;25.92;8.40;;;-3.40;99.90;;;;;;6219758;23;20004;-88
2023/03/11 08:15:46;;;;;;;17.02;6.47;;;-3.40;99.90;;;;;;6219950;23;20012;-86
2023/03/11 08:18:12;;;;;;;23.20;8.57;;;-3.30;99.90;;;;;;6219395;23;20008;-88
2023/03/11 08:20:38;;;;;;;22.15;7.43;;;-3.30;99.90;;;;;;6219847;23;20027;-88
2023/03/11 08:23:04;;;;;;;16.58;6.90;;;-3.30;99.90;;;;;;6219858;23;20004;-88
2023/03/11 08:25:30;;;;;;;18.35;7.45;;;-3.20;99.90;;;;;;6220268;23;20015;-88
2023/03/11 08:27:56;;;;;;;18.63;7.47;;;-3.10;99.90;;;;;;6220229;23;20511;-88
2023/03/11 08:30:23;;;;;;;17.75;7.63;;;-3.10;99.90;;;;;;6218991;23;20039;-88
2023/03/11 08:32:49;;;;;;;29.20;11.80;;;-3.00;99.90;;;;;;6219950;23;20435;-88
2023/03/11 08:35:15;;;;;;;23.88;12.07;;;-2.80;99.90;;;;;;6254632;22;20072;-88
2023/03/11 08:37:41;;;;;;;20.75;9.57;;;-2.60;99.90;;;;;;6237338;22;20016;-88
2023/03/11 08:40:09;;;;;;;20.70;7.22;;;-2.30;99.90;;;;;;6238474;23;20004;-88
2023/03/11 08:42:35;;;;;;;18.33;6.65;;;-2.20;99.90;;;;;;6230060;23;20008;-88
2023/03/11 08:45:01;;;;;;;13.77;6.13;;;-2.00;99.90;;;;;;6229721;23;20051;-90
2023/03/11 08:47:26;;;;;;;17.02;6.20;;;-1.80;99.90;;;;;;6224119;23;20435;-90
2023/03/11 08:49:52;;;;;;;20.92;7.78;;;-1.60;99.90;;;;;;6220366;23;20008;-88
2023/03/11 08:52:17;;;;;;;34.53;11.48;;;-1.50;99.90;;;;;;6219742;23;20008;-88
2023/03/11 08:54:43;;;;;;;36.33;12.40;;;-1.30;99.90;;;;;;6219724;23;20000;-87
2023/03/11 08:57:09;;;;;;;26.05;10.20;;;-1.10;99.90;;;;;;6219985;23;20036;-87
2023/03/11 08:59:35;;;;;;;31.15;11.90;;;-1.10;99.90;;;;;;6219682;23;20096;-88
2023/03/11 09:02:01;;;;;;;31.10;12.50;;;-0.90;99.90;;;;;;6219458;23;20007;-88
2023/03/11 09:04:26;;;;;;;29.95;11.70;;;-0.80;99.90;;;;;;6220212;23;20000;-90
2023/03/11 09:06:52;;;;;;;31.25;10.88;;;-0.70;99.90;;;;;;6219810;23;20019;-88
2023/03/11 09:09:19;;;;;;;25.55;10.48;;;-0.50;99.90;;;;;;6220495;23;20004;-87
2023/03/11 09:11:46;;;;;;;28.60;10.63;;;-0.50;99.90;;;;;;6219808;23;20447;-88
2023/03/11 09:14:11;;;;;;;28.83;9.57;;;-0.40;99.90;;;;;;6219587;23;20009;-88
2023/03/11 09:16:37;;;;;;;21.42;8.93;;;-0.30;99.90;;;;;;6219237;23;20016;-87
2023/03/11 09:19:06;;;;;;;21.92;8.73;;;-0.20;99.90;;;;;;6219654;23;20008;-87
2023/03/11 09:21:32;;;;;;;21.85;9.13;;;-0.20;99.90;;;;;;6220874;23;20015;-88
2023/03/11 09:23:58;;;;;;;22.38;9.32;;;-0.10;99.90;;;;;;6221493;23;20004;-88
2023/03/11 09:26:24;;;;;;;19.83;7.97;;;-0.10;99.90;;;;;;6219913;23;20324;-89
2023/03/11 09:28:50;;;;;;;20.15;8.55;;;0.00;99.90;;;;;;6219410;23;20083;-89
2023/03/11 09:31:16;;;;;;;19.67;8.13;;;0.10;99.90;;;;;;6246156;23;20000;-88
2023/03/11 09:33:42;;;;;;;22.23;9.15;;;0.20;99.90;;;;;;6219896;23;20012;-89
2023/03/11 09:36:12;;;;;;;17.35;7.97;;;0.30;99.90;;;;;;6219720;23;20066;-89
2023/03/11 09:38:38;;;;;;;;;;;0.30;99.90;;;;;;6220679;23;20007;-88
2023/03/11 09:41:12;;;;;;;20.00;7.68;;;0.40;99.90;;;;;;6220132;23;19907;-88
2023/03/11 09:44:05;;;;;;;19.42;8.02;;;0.50;99.90;;;;;;6219729;23;20577;-88
2023/03/11 09:46:37;;;;;;;16.83;7.40;;;0.60;99.90;;;;;;6219395;23;20011;-89
2023/03/11 09:49:20;;;;;;;15.48;6.78;;;0.80;99.90;;;;;;6221546;23;20412;-90
2023/03/11 09:52:05;;;;;;;19.80;6.90;;;0.90;99.90;;;;;;6229379;23;20008;-89
2023/03/11 09:54:37;;;;;;;13.50;6.90;;;1.10;99.90;;;;;;6233751;23;20011;-87
2023/03/11 09:57:04;;;;;;;16.30;6.97;;;1.30;99.90;;;;;;6229077;23;20012;-89
2023/03/11 09:59:32;;;;;;;14.95;6.38;;;1.50;99.90;;;;;;6221256;23;20004;-89
2023/03/11 10:01:59;;;;;;;17.30;5.72;;;1.60;99.90;;;;;;6221445;23;20424;-89
2023/03/11 10:04:30;;;;;;;21.05;6.45;;;1.80;99.90;;;;;;6221557;23;20443;-91
2023/03/11 10:07:00;;;;;;;13.90;5.63;;;2.00;99.90;;;;;;6221357;23;20044;-88
2023/03/11 10:09:42;;;;;;;9.27;5.57;;;2.10;99.90;;;;;;6221005;23;20008;-88
2023/03/11 10:12:20;;;;;;;17.58;6.03;;;2.20;99.90;;;;;;6220518;23;20004;-88
2023/03/11 10:14:51;;;;;;;19.30;6.18;;;2.40;99.90;;;;;;6221395;23;20027;-90
2023/03/11 10:17:42;;;;;;;12.82;5.82;;;2.60;99.90;;;;;;6221154;23;20044;-92
2023/03/11 10:20:31;;;;;;;15.60;6.72;;;2.90;99.90;;;;;;6221637;23;19996;-91
2023/03/11 10:23:01;;;;;;;14.50;6.70;;;3.20;99.90;;;;;;6221590;23;20004;-90
2023/03/11 10:25:50;;;;;;;18.85;6.32;;;3.50;99.90;;;;;;6221554;23;20083;-91
2023/03/11 10:28:31;;;;;;;15.15;6.32;;;3.90;99.90;;;;;;6220968;23;20032;-91
2023/03/11 10:31:01;;;;;;;16.40;6.22;;;4.30;99.90;;;;;;6221033;23;20353;-89
2023/03/11 10:34:03;;;;;;;17.63;6.40;;;4.80;99.90;;;;;;6221767;23;20008;-89
2023/03/11 10:36:44;;;;;;;17.88;7.15;;;5.20;99.90;;;;;;6221034;23;20444;-90
2023/03/11 10:39:10;;;;;;;17.00;6.00;;;5.50;99.90;;;;;;6221323;23;20000;-89
2023/03/11 10:41:59;;;;;;;13.45;6.40;;;5.70;99.90;;;;;;6220936;23;20146;-91
2023/03/11 10:44:37;;;;;;;13.77;6.03;;;5.80;99.90;;;;;;6221337;23;20004;-90
2023/03/11 10:47:04;;;;;;;12.40;5.82;;;5.90;99.20;;;;;;6247229;23;20137;-91
2023/03/11 10:49:30;;;;;;;12.05;6.05;;;5.90;98.60;;;;;;6221366;23;20424;-90
2023/03/11 10:51:56;;;;;;;18.40;6.53;;;5.90;98.20;;;;;;6221438;23;20007;-92
2023/03/11 10:54:47;;;;;;;17.23;5.32;;;6.00;97.80;;;;;;6220426;23;20004;-92
2023/03/11 10:57:34;;;;;;;12.07;3.95;;;6.20;97.00;;;;;;6221344;23;20016;-92
2023/03/11 11:00:16;;;;;;;9.18;3.40;;;6.50;96.60;;;;;;6221764;23;20000;-94
2023/03/11 11:03:35;;;;;;;10.65;3.20;;;6.90;95.80;;;;;;6222729;23;20015;-94
2023/03/11 11:09:34;;;;;;;7.82;2.33;;;7.30;93.00;;;;;;6248345;23;20000;-93
2023/03/11 11:12:19;;;;;;;7.22;4.18;;;7.40;91.90;;;;;;6221928;23;20033;-94
2023/03/11 11:14:56;;;;;;;8.40;3.97;;;7.40;91.40;;;;;;6195859;23;20011;-93
2023/03/11 11:17:51;;;;;;;10.45;3.58;;;7.10;90.10;;;;;;6223979;23;20071;-93
2023/03/11 11:20:18;;;;;;;5.45;2.90;;;7.00;90.20;;;;;;6175313;23;20008;-93
2023/03/11 11:23:02;;;;;;;12.93;3.30;;;6.90;90.30;;;;;;6196371;23;20451;-91
2023/03/11 11:25:57;;;;;;;6.95;2.65;;;7.00;90.20;;;;;;6220615;23;20000;-90
2023/03/11 11:28:27;;;;;;;5.05;2.40;;;7.30;90.00;;;;;;6220818;23;20007;-90
2023/03/11 11:30:54;;;;;;;6.75;2.80;;;7.70;89.30;;;;;;6220697;23;20004;-90
2023/03/11 11:33:31;;;;;;;8.60;2.85;;;8.10;87.80;;;;;;6219863;23;20005;-88
2023/03/11 11:36:00;;;;;;;6.68;2.40;;;8.40;87.30;;;;;;6218753;23;20062;-89
2023/03/11 11:38:28;;;;;;;6.35;2.75;;;8.80;84.90;;;;;;6219482;23;20015;-89
2023/03/11 11:40:56;;;;;;;7.47;2.67;;;9.10;83.70;;;;;;6219155;23;20008;-89
2023/03/11 11:43:33;;;;;;;3.50;2.13;;;9.30;82.20;;;;;;6218772;23;20008;-89
2023/03/11 11:46:04;;;;;;;8.00;2.20;;;9.40;80.60;;;;;;6219501;23;20008;-89
2023/03/11 11:48:51;;;;;;;7.53;2.70;;;9.50;80.10;;;;;;6218947;23;20004;-89
2023/03/11 11:51:26;;;;;;;6.88;2.67;;;9.30;78.30;;;;;;6246126;23;20008;-88
2023/03/11 11:54:06;;;;;;;3.95;2.03;;;9.10;77.60;;;;;;6218459;23;20005;-87
2023/03/11 11:56:31;;;;;;;6.05;2.45;;;9.10;77.00;;;;;;6218998;23;20023;-88
2023/03/11 11:58:57;;;;;;;3.90;2.00;;;9.10;76.60;;;;;;6216808;23;20030;-88
2023/03/11 12:01:57;;;;;;;13.98;2.40;;;9.20;75.90;;;;;;6218591;23;20431;-88
2023/03/11 12:04:41;;;;;;;3.95;1.52;;;9.00;75.00;;;;;;6218878;23;20004;-88
2023/03/11 12:07:16;;;;;;;8.20;1.98;;;8.90;75.20;;;;;;6246037;23;20431;-88
2023/03/11 12:09:47;;;;;;;5.93;1.90;;;8.80;75.00;;;;;;6219497;23;20020;-86
2023/03/11 12:12:19;;;;;;;11.77;2.35;;;8.70;74.50;;;;;;6219131;23;20058;-88
2023/03/11 12:15:16;;;;;;;4.72;2.33;;;8.70;74.60;;;;;;6218386;23;20004;-89
2023/03/11 12:17:45;;;;;;;5.82;2.10;;;8.80;74.60;;;;;;6219463;23;20070;-88
2023/03/11 12:20:31;;;;;;;6.22;2.30;;;8.80;73.80;;;;;;6219285;23;20011;-88
2023/03/11 12:23:12;;;;;;;6.72;3.05;;;8.80;73.10;;;;;;6217782;23;20043;-89
2023/03/11 12:25:57;;;;;;;5.80;2.85;;;8.80;73.10;;;;;;6218463;23;20011;-89
2023/03/11 12:28:33;;;;;;;7.22;2.00;;;8.90;73.10;;;;;;6218554;23;20012;-89
2023/03/11 12:31:02;;;;;;;5.90;2.28;;;8.90;72.90;;;;;;6220114;23;20427;-89
2023/03/11 12:33:31;;;;;;;5.00;2.22;;;8.80;72.60;;;;;;6223795;23;20046;-88
2023/03/11 12:35:59;;;;;;;7.32;2.30;;;8.70;72.10;;;;;;6221920;23;20044;-92
2023/03/11 12:38:38;;;;;;;4.20;2.47;;;8.50;71.50;;;;;;6221423;23;20047;-89
2023/03/11 12:41:26;;;;;;;6.70;2.88;;;8.30;71.80;;;;;;6246185;23;20079;-89
2023/03/11 12:43:51;;;;;;;11.90;3.00;;;8.40;72.20;;;;;;6219276;23;20023;-89
2023/03/11 12:46:18;;;;;;;9.13;3.10;;;8.50;72.20;;;;;;6219067;23;20004;-90
2023/03/11 12:48:50;;;;;;;5.60;2.45;;;8.50;71.70;;;;;;6219047;23;20004;-92
2023/03/11 12:51:59;;;;;;;9.35;2.60;;;8.50;72.00;;;;;;6221250;23;20000;-93
2023/03/11 12:54:33;;;;;;;7.63;2.55;;;8.50;72.30;;;;;;6226004;23;20095;-92
2023/03/11 12:57:15;;;;;;;9.15;2.58;;;8.50;71.90;;;;;;6221946;23;20040;-91